Time;durP1;ratioP1;P1;durP2;ratioP2;P2;SDS_P1;SDS_P2;PMS_P1;PMS_P2;Temp;Humidity;BMP_temperature;BMP_pressure;BME280_temperature;BME280_humidity;BME280_pressure;Samples;Min_cycle;Max_cycle;Signal;HPM_P1;HPM_P2
2022/07/14 00:00:24;;;;;;;3.07;1.80;;;;;;;;;;10477795;28;20049;-77
2022/07/14 00:05:24;;;;;;;2.17;1.97;;;;;;;;;;10472764;28;20294;-79
2022/07/14 00:10:25;;;;;;;1.92;1.70;;;;;;;;;;10478479;28;20048;-78
2022/07/14 00:15:27;;;;;;;2.00;1.80;;;;;;;;;;10482264;28;20474;-80
2022/07/14 00:20:27;;;;;;;3.15;1.70;;;;;;;;;;10477852;28;20048;-78
2022/07/14 00:25:27;;;;;;;2.38;1.92;;;;;;;;;;10481823;28;20045;-78
2022/07/14 00:30:28;;;;;;;2.23;1.90;;;;;;;;;;10466994;28;20044;-80
2022/07/14 00:35:28;;;;;;;2.22;1.80;;;;;;;;;;10469058;28;20032;-79
2022/07/14 00:40:30;;;;;;;2.65;1.80;;;;;;;;;;10466727;28;20063;-79
2022/07/14 00:45:31;;;;;;;3.10;1.90;;;;;;;;;;10488513;28;20040;-78
2022/07/14 00:50:31;;;;;;;2.20;2.00;;;;;;;;;;10465844;28;20458;-78
2022/07/14 00:55:32;;;;;;;2.05;1.85;;;;;;;;;;10463900;28;20379;-78
2022/07/14 01:00:32;;;;;;;3.80;2.00;;;;;;;;;;10450573;28;20051;-78
2022/07/14 01:05:33;;;;;;;2.60;2.30;;;;;;;;;;10475779;28;20180;-79
2022/07/14 01:10:35;;;;;;;2.33;2.13;;;;;;;;;;10472453;28;20271;-81
2022/07/14 01:15:36;;;;;;;2.30;2.10;;;;;;;;;;10481604;28;20051;-81
2022/07/14 01:20:37;;;;;;;2.97;2.13;;;;;;;;;;10475059;28;20190;-83
2022/07/14 01:25:37;;;;;;;2.43;2.20;;;;;;;;;;10471920;28;20408;-84
2022/07/14 01:30:38;;;;;;;2.42;2.15;;;;;;;;;;10474366;28;20386;-79
2022/07/14 01:35:40;;;;;;;2.58;2.15;;;;;;;;;;10457004;28;20056;-79
2022/07/14 01:40:41;;;;;;;2.63;2.03;;;;;;;;;;10477587;28;20124;-80
2022/07/14 01:45:42;;;;;;;2.83;2.55;;;;;;;;;;10460846;28;20072;-81
2022/07/14 01:50:42;;;;;;;2.95;2.63;;;;;;;;;;10480171;28;20068;-78
2022/07/14 01:55:43;;;;;;;3.10;2.80;;;;;;;;;;10470334;28;20055;-78
2022/07/14 02:01:39;;;;;;;4.97;2.65;;;;;;;;;;10468595;28;20076;-78
2022/07/14 02:06:06;;;;;;;3.10;2.80;;;;;;;;;;10486992;28;20199;-78
2022/07/14 02:16:27;;;;;;;2.85;2.30;;;;;;;;;;10468033;28;20479;-78
2022/07/14 02:21:28;;;;;;;2.58;2.38;;;;;;;;;;10459814;28;20110;-79
2022/07/14 02:26:29;;;;;;;3.00;2.13;;;;;;;;;;10466702;28;20045;-78
2022/07/14 02:31:33;;;;;;;2.70;2.50;;;;;;;;;;10458282;28;20122;-78
2022/07/14 02:36:33;;;;;;;2.38;2.15;;;;;;;;;;10464329;28;20819;-77
2022/07/14 02:41:34;;;;;;;2.35;2.13;;;;;;;;;;10479552;28;20044;-78
2022/07/14 02:46:35;;;;;;;2.60;2.40;;;;;;;;;;10483073;28;20096;-77
2022/07/14 02:51:39;;;;;;;2.30;2.10;;;;;;;;;;10454799;28;20049;-79
2022/07/14 02:56:39;;;;;;;3.28;2.40;;;;;;;;;;10453680;28;20044;-78
2022/07/14 03:01:41;;;;;;;2.58;2.20;;;;;;;;;;10470429;28;20518;-79
2022/07/14 03:06:45;;;;;;;2.90;2.70;;;;;;;;;;10473636;28;20040;-79
2022/07/14 03:11:48;;;;;;;4.22;2.25;;;;;;;;;;10470360;28;20048;-79
2022/07/14 03:16:49;;;;;;;2.88;2.38;;;;;;;;;;10483552;28;20582;-78
2022/07/14 03:21:50;;;;;;;2.63;2.42;;;;;;;;;;10478404;28;20124;-78
2022/07/14 03:26:50;;;;;;;2.72;2.53;;;;;;;;;;10485218;28;20044;-78
2022/07/14 03:31:53;;;;;;;2.63;2.38;;;;;;;;;;10475405;28;20048;-80
2022/07/14 03:36:56;;;;;;;2.80;2.50;;;;;;;;;;10518256;28;20056;-78
2022/07/14 03:42:02;;;;;;;4.00;2.60;;;;;;;;;;10463759;28;20400;-78
2022/07/14 03:47:04;;;;;;;3.22;2.97;;;;;;;;;;10479065;28;20045;-78
2022/07/14 03:52:06;;;;;;;2.58;2.38;;;;;;;;;;10469077;28;20065;-80
2022/07/14 03:57:07;;;;;;;3.57;2.90;;;;;;;;;;10463399;28;20041;-79
2022/07/14 04:02:12;;;;;;;3.92;3.10;;;;;;;;;;10458679;28;20048;-79
2022/07/14 04:07:12;;;;;;;4.97;3.55;;;;;;;;;;10469761;28;20051;-79
2022/07/14 04:12:14;;;;;;;4.05;2.90;;;;;;;;;;10473488;28;20099;-79
2022/07/14 04:17:15;;;;;;;4.45;3.45;;;;;;;;;;10461077;28;20060;-79
2022/07/14 04:22:16;;;;;;;6.32;3.55;;;;;;;;;;10467716;28;20056;-78
2022/07/14 04:27:17;;;;;;;3.60;3.30;;;;;;;;;;10455460;28;20037;-78
2022/07/14 04:32:17;;;;;;;3.38;3.05;;;;;;;;;;10472785;28;20056;-79
2022/07/14 04:37:18;;;;;;;3.67;3.38;;;;;;;;;;10490087;28;20049;-79
2022/07/14 04:42:20;;;;;;;3.75;3.45;;;;;;;;;;10490052;28;20142;-79
2022/07/14 04:47:21;;;;;;;5.68;3.97;;;;;;;;;;10474498;28;20044;-79
2022/07/14 04:52:22;;;;;;;3.97;3.67;;;;;;;;;;10481705;28;20044;-78
2022/07/14 04:57:40;;;;;;;4.07;3.78;;;;;;;;;;10485684;28;20048;-75
2022/07/14 05:02:45;;;;;;;4.10;3.13;;;;;;;;;;10490065;28;20059;-80
2022/07/14 05:08:08;;;;;;;3.60;3.30;;;;;;;;;;10471427;28;20047;-78
2022/07/14 05:13:21;;;;;;;4.25;3.10;;;;;;;;;;10517999;28;20052;-78
2022/07/14 05:18:26;;;;;;;4.45;3.63;;;;;;;;;;10482090;28;20116;-78
2022/07/14 05:23:27;;;;;;;3.38;3.08;;;;;;;;;;10506716;28;20049;-77
2022/07/14 05:28:28;;;;;;;3.30;3.00;;;;;;;;;;10457298;28;20049;-78
2022/07/14 05:33:34;;;;;;;3.53;2.85;;;;;;;;;;10487499;28;20028;-76
2022/07/14 05:38:35;;;;;;;3.90;3.47;;;;;;;;;;10500745;28;20049;-76
2022/07/14 05:43:37;;;;;;;4.30;3.33;;;;;;;;;;10511216;28;20093;-77
2022/07/14 05:48:38;;;;;;;4.93;3.47;;;;;;;;;;10496943;28;20045;-77
2022/07/14 05:53:39;;;;;;;3.55;3.22;;;;;;;;;;10499361;28;20044;-76
2022/07/14 05:58:40;;;;;;;3.33;3.03;;;;;;;;;;10499759;28;20075;-75
2022/07/14 06:03:40;;;;;;;3.65;3.28;;;;;;;;;;10511589;28;20056;-76
2022/07/14 06:08:42;;;;;;;3.88;3.15;;;;;;;;;;10539574;28;20072;-77
2022/07/14 06:13:45;;;;;;;3.90;3.27;;;;;;;;;;10493497;28;20083;-79
2022/07/14 06:18:50;;;;;;;35.33;29.42;;;;;;;;;;10479790;28;20041;-77
2022/07/14 06:23:51;;;;;;;4.75;3.25;;;;;;;;;;10439701;28;20139;-79
2022/07/14 06:28:52;;;;;;;3.72;3.42;;;;;;;;;;10476884;28;20140;-78
2022/07/14 06:33:53;;;;;;;3.28;2.97;;;;;;;;;;10473387;28;20048;-78
2022/07/14 06:39:14;;;;;;;3.42;3.13;;;;;;;;;;10500476;28;20415;-78
2022/07/14 06:44:16;;;;;;;5.40;3.05;;;;;;;;;;10503311;28;20408;-77
2022/07/14 06:49:19;;;;;;;4.90;4.20;;;;;;;;;;10458268;28;20049;-78
2022/07/14 06:54:19;;;;;;;3.30;2.67;;;;;;;;;;10446840;28;20045;-79
2022/07/14 06:59:22;;;;;;;3.13;2.50;;;;;;;;;;10491253;28;20267;-78
2022/07/14 07:04:23;;;;;;;4.03;2.53;;;;;;;;;;10504852;28;20516;-78
2022/07/14 07:09:26;;;;;;;4.03;2.53;;;;;;;;;;10508011;28;20051;-78
2022/07/14 07:14:29;;;;;;;3.50;2.50;;;;;;;;;;10521494;28;20170;-78
2022/07/14 07:19:29;;;;;;;4.82;2.83;;;;;;;;;;10499037;28;20041;-77
2022/07/14 07:24:30;;;;;;;2.70;2.50;;;;;;;;;;10495687;28;20116;-77
2022/07/14 07:29:30;;;;;;;4.17;2.83;;;;;;;;;;10511332;28;20064;-78
2022/07/14 07:34:31;;;;;;;3.77;2.40;;;;;;;;;;10468146;28;20384;-78
2022/07/14 07:39:33;;;;;;;4.75;2.50;;;;;;;;;;10510200;28;20045;-79
2022/07/14 07:44:36;;;;;;;5.00;3.63;;;;;;;;;;10498738;28;20052;-77
2022/07/14 07:49:36;;;;;;;7.20;4.20;;;;;;;;;;10504817;28;20055;-78
2022/07/14 07:54:37;;;;;;;5.83;3.33;;;;;;;;;;10528009;28;20041;-77
2022/07/14 07:59:39;;;;;;;4.22;3.10;;;;;;;;;;10484718;28;20041;-78
2022/07/14 08:04:40;;;;;;;16.27;10.57;;;;;;;;;;10504478;28;20090;-78
2022/07/14 08:09:41;;;;;;;4.03;2.72;;;;;;;;;;10500049;28;20121;-78
2022/07/14 08:14:48;;;;;;;4.82;3.67;;;;;;;;;;10490826;28;20041;-78
2022/07/14 08:19:49;;;;;;;2.58;2.20;;;;;;;;;;10526731;27;20041;-78
2022/07/14 08:24:49;;;;;;;3.60;2.47;;;;;;;;;;10489476;28;20109;-78
2022/07/14 08:29:50;;;;;;;3.10;1.80;;;;;;;;;;10491552;28;20057;-78
2022/07/14 08:34:52;;;;;;;4.32;2.00;;;;;;;;;;10502263;28;20052;-78
2022/07/14 08:39:52;;;;;;;2.60;2.00;;;;;;;;;;10477833;28;20048;-80
2022/07/14 08:44:53;;;;;;;5.87;2.60;;;;;;;;;;10505213;28;20029;-79
2022/07/14 08:49:54;;;;;;;2.67;1.77;;;;;;;;;;10560139;27;20044;-78
2022/07/14 08:54:56;;;;;;;2.78;2.03;;;;;;;;;;10497398;28;20045;-78
2022/07/14 08:59:58;;;;;;;3.28;2.33;;;;;;;;;;10514149;27;20063;-78
2022/07/14 09:04:58;;;;;;;3.20;2.63;;;;;;;;;;10469963;28;20133;-77
2022/07/14 09:10:09;;;;;;;27.60;24.63;;;;;;;;;;10511122;28;20960;-78
2022/07/14 09:20:31;;;;;;;5.95;2.95;;;;;;;;;;10470981;28;20056;-82
2022/07/14 09:25:34;;;;;;;2.53;2.28;;;;;;;;;;10502267;28;20057;-83
2022/07/14 09:30:46;;;;;;;4.07;2.80;;;;;;;;;;10504406;28;20051;-82
2022/07/14 09:35:48;;;;;;;3.45;2.50;;;;;;;;;;10531365;28;21101;-82
2022/07/14 09:40:51;;;;;;;2.95;2.55;;;;;;;;;;10514125;28;20047;-83
2022/07/14 09:45:58;;;;;;;3.13;2.40;;;;;;;;;;10524896;28;20479;-82
2022/07/14 09:51:01;;;;;;;2.67;2.30;;;;;;;;;;10521021;28;20047;-81
2022/07/14 09:56:06;;;;;;;6.13;2.95;;;;;;;;;;10537946;28;20049;-82
2022/07/14 10:01:07;;;;;;;3.25;2.60;;;;;;;;;;10511427;28;20052;-81
2022/07/14 10:06:29;;;;;;;4.05;2.00;;;;;;;;;;10506541;28;20048;-85
2022/07/14 10:11:34;;;;;;;2.45;1.92;;;;;;;;;;10481719;28;20032;-83
2022/07/14 10:16:35;;;;;;;2.53;1.95;;;;;;;;;;10531622;28;20126;-86
2022/07/14 10:21:39;;;;;;;3.28;2.00;;;;;;;;;;10538532;28;20044;-85
2022/07/14 10:26:42;;;;;;;3.45;2.20;;;;;;;;;;10533514;28;20051;-81
2022/07/14 10:32:06;;;;;;;2.05;1.77;;;;;;;;;;10514437;28;20033;-85
2022/07/14 10:37:15;;;;;;;4.95;2.25;;;;;;;;;;10483463;28;20040;-85
2022/07/14 10:42:37;;;;;;;3.72;2.00;;;;;;;;;;10501414;28;20044;-83
2022/07/14 10:47:38;;;;;;;;;;;;;;;;;;10513636;28;20500;-82
2022/07/14 10:53:00;;;;;;;3.00;2.10;;;;;;;;;;10501976;28;20726;-84
2022/07/14 10:58:07;;;;;;;3.03;2.03;;;;;;;;;;10507386;27;20515;-84
2022/07/14 11:03:25;;;;;;;2.75;2.20;;;;;;;;;;10480789;28;20146;-84
2022/07/14 11:08:28;;;;;;;5.30;1.90;;;;;;;;;;10510979;28;20053;-85
2022/07/14 11:13:29;;;;;;;2.58;2.03;;;;;;;;;;10546805;28;20032;-84
2022/07/14 11:18:42;;;;;;;2.08;1.60;;;;;;;;;;10544868;27;20041;-83
2022/07/14 11:23:49;;;;;;;4.10;2.00;;;;;;;;;;10508531;28;20036;-84
2022/07/14 11:28:52;;;;;;;5.70;2.00;;;;;;;;;;10499528;28;20134;-83
2022/07/14 11:39:37;;;;;;;4.85;1.90;;;;;;;;;;10524305;28;20114;-84
2022/07/14 11:44:41;;;;;;;6.90;2.03;;;;;;;;;;10526639;28;20117;-87
2022/07/14 11:50:03;;;;;;;2.67;1.90;;;;;;;;;;10554171;28;20060;-86
2022/07/14 11:55:12;;;;;;;3.08;1.60;;;;;;;;;;10541385;27;20076;-86
2022/07/14 12:00:37;;;;;;;4.72;1.90;;;;;;;;;;10533614;28;20032;-87
2022/07/14 12:05:38;;;;;;;3.45;1.85;;;;;;;;;;10509429;28;20221;-86
2022/07/14 12:10:45;;;;;;;3.25;1.90;;;;;;;;;;10524353;27;20035;-86
2022/07/14 12:15:50;;;;;;;3.58;1.70;;;;;;;;;;10537103;28;20053;-84
2022/07/14 12:20:53;;;;;;;3.13;1.88;;;;;;;;;;10507846;28;20065;-87
2022/07/14 12:25:59;;;;;;;3.00;2.42;;;;;;;;;;10532983;28;20043;-80
2022/07/14 12:31:02;;;;;;;4.75;2.10;;;;;;;;;;10524372;27;20065;-82
2022/07/14 12:36:05;;;;;;;3.15;1.85;;;;;;;;;;10530961;28;20125;-82
2022/07/14 12:41:12;;;;;;;3.85;1.92;;;;;;;;;;10485893;28;20113;-83
2022/07/14 12:46:26;;;;;;;3.90;1.85;;;;;;;;;;10491168;28;20035;-83
2022/07/14 12:51:33;;;;;;;9.15;7.75;;;;;;;;;;10506428;28;20057;-85
2022/07/14 12:56:40;;;;;;;3.30;1.95;;;;;;;;;;10543516;28;20045;-83
2022/07/14 13:01:48;;;;;;;3.25;2.00;;;;;;;;;;10537719;28;20110;-84
2022/07/14 13:06:49;;;;;;;4.30;2.33;;;;;;;;;;10500732;28;20045;-83
2022/07/14 13:11:54;;;;;;;4.85;2.40;;;;;;;;;;10523762;28;20040;-81
2022/07/14 13:16:56;;;;;;;4.03;2.33;;;;;;;;;;10538565;28;20051;-82
2022/07/14 13:21:56;;;;;;;;;;;;;;;;;;10517321;28;20040;-82
2022/07/14 13:26:58;;;;;;;4.43;2.30;;;;;;;;;;10516910;28;19915;-82
2022/07/14 13:31:58;;;;;;;2.83;2.13;;;;;;;;;;10501093;28;20056;-82
2022/07/14 13:36:59;;;;;;;;;;;;;;;;;;10507274;28;20486;-81
2022/07/14 13:42:00;;;;;;;5.85;2.10;;;;;;;;;;10499169;28;19944;-80
2022/07/14 13:47:00;;;;;;;;;;;;;;;;;;10506592;28;20123;-83
2022/07/14 13:52:10;;;;;;;3.42;2.28;;;;;;;;;;10500132;28;19928;-83
2022/07/14 13:57:20;;;;;;;3.38;2.25;;;;;;;;;;10501892;28;20098;-80
2022/07/14 14:02:21;;;;;;;2.88;2.22;;;;;;;;;;10517877;28;20477;-82
2022/07/14 14:07:21;;;;;;;3.03;2.80;;;;;;;;;;10468527;28;20180;-84
2022/07/14 14:12:21;;;;;;;7.00;2.93;;;;;;;;;;10531441;28;20322;-85
2022/07/14 14:17:22;;;;;;;;;;;;;;;;;;10505819;28;20047;-82
2022/07/14 14:22:23;;;;;;;5.20;2.88;;;;;;;;;;10551137;28;19916;-84
2022/07/14 14:27:24;;;;;;;5.25;3.15;;;;;;;;;;10516723;28;20076;-84
2022/07/14 14:32:25;;;;;;;3.73;2.77;;;;;;;;;;10538793;28;20084;-83
2022/07/14 14:37:25;;;;;;;4.95;2.80;;;;;;;;;;10546816;27;20089;-85
2022/07/14 14:42:33;;;;;;;3.17;2.72;;;;;;;;;;10552041;28;20040;-83
2022/07/14 14:47:34;;;;;;;5.33;2.90;;;;;;;;;;10523629;28;20487;-78
2022/07/14 14:52:35;;;;;;;3.85;3.03;;;;;;;;;;10554069;27;20504;-82
2022/07/14 14:57:35;;;;;;;5.18;2.75;;;;;;;;;;10499400;28;20051;-82
2022/07/14 15:02:38;;;;;;;3.97;2.88;;;;;;;;;;10499285;28;20071;-82
2022/07/14 15:07:39;;;;;;;3.08;2.63;;;;;;;;;;10523728;27;20056;-85
2022/07/14 15:12:41;;;;;;;3.60;2.60;;;;;;;;;;10505114;28;20049;-86
2022/07/14 15:17:46;;;;;;;4.05;2.75;;;;;;;;;;10511416;28;20051;-79
2022/07/14 15:22:53;;;;;;;4.90;3.13;;;;;;;;;;10513085;28;20055;-83
2022/07/14 15:28:06;;;;;;;4.53;2.65;;;;;;;;;;10486399;28;20049;-85
2022/07/14 15:33:21;;;;;;;2.80;2.30;;;;;;;;;;10509170;28;20054;-80
2022/07/14 15:38:21;;;;;;;4.97;2.60;;;;;;;;;;10507267;28;20064;-86
2022/07/14 15:43:22;;;;;;;3.15;2.63;;;;;;;;;;10523697;27;20063;-83
2022/07/14 15:48:30;;;;;;;2.58;2.38;;;;;;;;;;10488621;28;20037;-83
2022/07/14 15:53:41;;;;;;;5.50;2.85;;;;;;;;;;10499186;28;20040;-84
2022/07/14 15:58:44;;;;;;;3.97;2.45;;;;;;;;;;10497399;28;20059;-85
2022/07/14 16:03:51;;;;;;;5.22;2.72;;;;;;;;;;10482860;28;20585;-83
2022/07/14 16:09:11;;;;;;;7.07;3.42;;;;;;;;;;10523534;28;20126;-85
2022/07/14 16:14:13;;;;;;;4.53;2.97;;;;;;;;;;10522894;27;20042;-85
2022/07/14 16:19:15;;;;;;;4.97;3.13;;;;;;;;;;10568249;27;20251;-86
2022/07/14 16:24:22;;;;;;;3.38;3.00;;;;;;;;;;10542788;28;20048;-88
2022/07/14 16:29:24;;;;;;;5.25;3.20;;;;;;;;;;10525902;27;20113;-84
2022/07/14 16:34:29;;;;;;;4.38;3.42;;;;;;;;;;10533811;28;20076;-81
2022/07/14 16:39:32;;;;;;;3.85;3.20;;;;;;;;;;10520631;28;20044;-84
2022/07/14 16:44:34;;;;;;;4.33;3.43;;;;;;;;;;10496659;28;20029;-81
2022/07/14 16:49:35;;;;;;;3.55;3.25;;;;;;;;;;10507096;28;20079;-82
2022/07/14 16:54:40;;;;;;;3.95;3.22;;;;;;;;;;10503021;28;20047;-82
2022/07/14 16:59:40;;;;;;;7.43;4.32;;;;;;;;;;10515820;28;20082;-85
2022/07/14 17:04:41;;;;;;;5.97;4.30;;;;;;;;;;10524257;28;20090;-82
2022/07/14 17:09:46;;;;;;;7.55;4.47;;;;;;;;;;10508794;28;20075;-81
2022/07/14 17:14:46;;;;;;;9.30;4.85;;;;;;;;;;10513629;28;20143;-85
2022/07/14 17:19:50;;;;;;;5.70;5.13;;;;;;;;;;10500084;28;20040;-82
2022/07/14 17:24:52;;;;;;;5.40;4.40;;;;;;;;;;10518045;28;20153;-81
2022/07/14 17:29:54;;;;;;;5.40;3.92;;;;;;;;;;10519315;28;20090;-82
2022/07/14 17:34:55;;;;;;;5.65;3.90;;;;;;;;;;10516967;28;20052;-84
2022/07/14 17:39:57;;;;;;;4.85;4.20;;;;;;;;;;10522972;28;20047;-84
2022/07/14 17:45:01;;;;;;;;;;;;;;;;;;10494982;28;20029;-81
2022/07/14 17:50:04;;;;;;;4.38;3.90;;;;;;;;;;10515445;28;19923;-80
2022/07/14 17:55:16;;;;;;;5.18;4.22;;;;;;;;;;10480194;28;20044;-82
2022/07/14 18:00:21;;;;;;;4.57;3.85;;;;;;;;;;10526442;28;20050;-84
2022/07/14 18:05:24;;;;;;;4.38;3.97;;;;;;;;;;10535638;28;20037;-84
2022/07/14 18:10:31;;;;;;;5.57;3.88;;;;;;;;;;10602925;22;20141;-83
2022/07/14 18:15:33;;;;;;;4.60;3.70;;;;;;;;;;10423677;28;20046;-84
2022/07/14 18:20:37;;;;;;;3.92;3.58;;;;;;;;;;10437715;28;20424;-83
2022/07/14 18:26:05;;;;;;;;;;;;;;;;;;;;;
2022/07/14 18:31:24;;;;;;;;;;;;;;;;;;;;;
2022/07/14 18:37:10;;;;;;;;;;;;;;;;;;;;;
2022/07/14 18:42:31;;;;;;;4.63;3.47;;;;;;;;;;10416232;28;20515;-82
2022/07/14 18:47:32;;;;;;;4.20;3.80;;;;;;;;;;10401454;28;20081;-80
2022/07/14 18:52:33;;;;;;;3.67;3.37;;;;;;;;;;10357405;28;20308;-81
2022/07/14 18:57:33;;;;;;;3.92;3.30;;;;;;;;;;10371207;28;20027;-83
2022/07/14 19:02:35;;;;;;;5.03;3.42;;;;;;;;;;10363176;28;20045;-82
2022/07/14 19:07:37;;;;;;;4.38;3.97;;;;;;;;;;10377570;28;20042;-82
2022/07/14 19:12:40;;;;;;;3.78;3.30;;;;;;;;;;10412688;28;20065;-81
2022/07/14 19:17:47;;;;;;;3.95;3.47;;;;;;;;;;10406977;28;20050;-82
2022/07/14 19:22:47;;;;;;;4.95;3.67;;;;;;;;;;10437865;28;20044;-83
2022/07/14 19:27:48;;;;;;;3.90;3.50;;;;;;;;;;10406226;28;20043;-82
2022/07/14 19:32:48;;;;;;;6.55;3.35;;;;;;;;;;10402775;28;20115;-82
2022/07/14 19:37:51;;;;;;;5.03;3.47;;;;;;;;;;10416867;28;20104;-83
2022/07/14 19:42:53;;;;;;;4.00;3.70;;;;;;;;;;10413547;28;20025;-85
2022/07/14 19:47:54;;;;;;;3.58;3.17;;;;;;;;;;10402078;28;20112;-86
2022/07/14 19:53:04;;;;;;;4.72;3.50;;;;;;;;;;10447043;28;20093;-86
2022/07/14 19:58:06;;;;;;;4.78;3.78;;;;;;;;;;10410211;28;20073;-82
2022/07/14 20:03:12;;;;;;;4.43;3.55;;;;;;;;;;10391990;28;20045;-83
2022/07/14 20:09:00;;;;;;;5.65;3.88;;;;;;;;;;10375783;28;20033;-86
2022/07/14 20:14:01;;;;;;;6.03;3.88;;;;;;;;;;10391417;28;20060;-83
2022/07/14 20:19:04;;;;;;;4.13;3.63;;;;;;;;;;10419523;28;20037;-84
2022/07/14 20:24:22;;;;;;;4.22;3.83;;;;;;;;;;10399538;28;20065;-84
2022/07/14 20:34:53;;;;;;;6.15;3.72;;;;;;;;;;10391417;28;20045;-82
2022/07/14 20:39:56;;;;;;;4.33;3.50;;;;;;;;;;10408642;28;20119;-84
2022/07/14 20:44:58;;;;;;;6.50;3.40;;;;;;;;;;10404977;28;20470;-85
2022/07/14 20:50:12;;;;;;;4.38;3.50;;;;;;;;;;10306034;28;20058;-87
2022/07/14 20:55:15;;;;;;;6.13;3.20;;;;;;;;;;10387111;28;20491;-86
2022/07/14 21:00:21;;;;;;;3.78;2.80;;;;;;;;;;10404833;28;20049;-83
2022/07/14 21:06:13;;;;;;;4.18;2.65;;;;;;;;;;10340755;28;20184;-84
2022/07/14 21:10:57;;;;;;;5.18;3.00;;;;;;;;;;10381975;28;20076;-84
2022/07/14 21:16:10;;;;;;;4.78;2.58;;;;;;;;;;10389580;28;20050;-85
2022/07/14 21:21:15;;;;;;;3.80;2.70;;;;;;;;;;10348124;28;20064;-85
2022/07/14 21:31:44;;;;;;;;;;;;;;;;;;;;;
2022/07/14 21:37:04;;;;;;;4.28;2.38;;;;;;;;;;10387857;28;20037;-86
2022/07/14 21:43:01;;;;;;;;;;;;;;;;;;;;;
2022/07/14 21:49:05;;;;;;;4.05;2.33;;;;;;;;;;10427492;28;20025;-84
2022/07/14 21:54:23;;;;;;;4.47;2.03;;;;;;;;;;10375752;28;20044;-82
2022/07/14 22:00:10;;;;;;;2.75;1.90;;;;;;;;;;10965890;23;20126;-84
2022/07/14 22:06:02;;;;;;;2.03;1.70;;;;;;;;;;10313150;28;20089;-85
2022/07/14 22:11:15;;;;;;;3.40;1.95;;;;;;;;;;10500822;23;20050;-85
2022/07/14 22:16:24;;;;;;;5.05;2.20;;;;;;;;;;10521483;23;20113;-85
2022/07/14 22:21:26;;;;;;;4.30;1.90;;;;;;;;;;10397860;28;20026;-86
2022/07/14 22:27:16;;;;;;;3.00;1.88;;;;;;;;;;10398894;28;20041;-85
2022/07/14 22:32:23;;;;;;;4.18;1.85;;;;;;;;;;10415893;28;20049;-85
2022/07/14 22:37:32;;;;;;;2.20;1.75;;;;;;;;;;10398834;28;20060;-85
2022/07/14 22:42:34;;;;;;;4.47;2.03;;;;;;;;;;10413177;28;20070;-86
2022/07/14 22:47:58;;;;;;;4.78;2.30;;;;;;;;;;10431031;28;20041;-87
2022/07/14 22:52:59;;;;;;;3.22;1.83;;;;;;;;;;10390028;28;20064;-84
2022/07/14 22:58:08;;;;;;;2.90;2.20;;;;;;;;;;10401448;28;20045;-84
2022/07/14 23:03:15;;;;;;;3.95;2.13;;;;;;;;;;10396474;28;20045;-84
2022/07/14 23:08:33;;;;;;;2.08;1.80;;;;;;;;;;10424987;28;20047;-83
2022/07/14 23:13:38;;;;;;;3.40;1.75;;;;;;;;;;10392481;28;20045;-83
2022/07/14 23:18:44;;;;;;;2.50;1.90;;;;;;;;;;10411584;28;20072;-85
2022/07/14 23:23:47;;;;;;;4.57;2.20;;;;;;;;;;10379511;28;20678;-81
2022/07/14 23:28:48;;;;;;;4.53;2.03;;;;;;;;;;10390700;28;20108;-82
2022/07/14 23:33:53;;;;;;;3.83;2.45;;;;;;;;;;10395098;28;20045;-83
2022/07/14 23:39:03;;;;;;;5.22;2.13;;;;;;;;;;10386949;28;20065;-83
2022/07/14 23:44:10;;;;;;;4.50;2.20;;;;;;;;;;10376176;28;20064;-82
2022/07/14 23:49:14;;;;;;;4.13;2.03;;;;;;;;;;10404132;28;20189;-84
2022/07/14 23:54:17;;;;;;;4.35;2.38;;;;;;;;;;10378475;28;20110;-84
2022/07/14 23:59:22;;;;;;;4.50;2.58;;;;;;;;;;10396457;28;20060;-81
